sensor_id;sensor_type;location;lat;lon;timestamp;temperature;humidity
21801;DHT22;11062;51.164;16.924;2023-07-13T00:02:17;38.80;46.90
21801;DHT22;11062;51.164;16.924;2023-07-13T00:04:43;37.70;46.20
21801;DHT22;11062;51.164;16.924;2023-07-13T00:07:11;38.70;47.10
21801;DHT22;11062;51.164;16.924;2023-07-13T00:09:40;38.60;47.10
21801;DHT22;11062;51.164;16.924;2023-07-13T00:12:22;38.60;47.10
21801;DHT22;11062;51.164;16.924;2023-07-13T00:14:52;38.60;47.00
21801;DHT22;11062;51.164;16.924;2023-07-13T00:17:21;38.60;46.80
21801;DHT22;11062;51.164;16.924;2023-07-13T00:19:47;38.60;46.70
21801;DHT22;11062;51.164;16.924;2023-07-13T00:22:13;38.40;46.90
21801;DHT22;11062;51.164;16.924;2023-07-13T00:35:23;38.40;46.50
21801;DHT22;11062;51.164;16.924;2023-07-13T00:37:55;38.20;46.60
21801;DHT22;11062;51.164;16.924;2023-07-13T00:40:27;38.40;46.70
21801;DHT22;11062;51.164;16.924;2023-07-13T00:43:04;38.40;46.60
21801;DHT22;11062;51.164;16.924;2023-07-13T00:48:00;38.30;46.60
21801;DHT22;11062;51.164;16.924;2023-07-13T00:50:27;38.40;46.70
21801;DHT22;11062;51.164;16.924;2023-07-13T00:52:56;38.30;46.60
21801;DHT22;11062;51.164;16.924;2023-07-13T00:55:25;38.30;46.90
21801;DHT22;11062;51.164;16.924;2023-07-13T00:57:51;38.20;47.00
21801;DHT22;11062;51.164;16.924;2023-07-13T01:05:28;38.00;47.00
21801;DHT22;11062;51.164;16.924;2023-07-13T01:07:54;38.00;46.80
21801;DHT22;11062;51.164;16.924;2023-07-13T01:10:26;37.90;46.50
21801;DHT22;11062;51.164;16.924;2023-07-13T01:12:56;38.00;46.40
21801;DHT22;11062;51.164;16.924;2023-07-13T01:15:46;38.00;46.50
21801;DHT22;11062;51.164;16.924;2023-07-13T01:18:17;38.00;46.40
21801;DHT22;11062;51.164;16.924;2023-07-13T01:20:55;37.90;46.50
21801;DHT22;11062;51.164;16.924;2023-07-13T01:23:23;37.40;46.40
21801;DHT22;11062;51.164;16.924;2023-07-13T01:25:52;37.80;46.70
21801;DHT22;11062;51.164;16.924;2023-07-13T01:28:28;37.90;46.60
21801;DHT22;11062;51.164;16.924;2023-07-13T01:30:59;37.70;46.50
21801;DHT22;11062;51.164;16.924;2023-07-13T01:38:41;37.70;46.70
21801;DHT22;11062;51.164;16.924;2023-07-13T01:41:34;37.30;46.50
21801;DHT22;11062;51.164;16.924;2023-07-13T01:44:00;37.50;46.40
21801;DHT22;11062;51.164;16.924;2023-07-13T01:46:26;37.50;46.70
21801;DHT22;11062;51.164;16.924;2023-07-13T01:48:55;37.20;46.60
21801;DHT22;11062;51.164;16.924;2023-07-13T01:51:24;37.40;46.70
21801;DHT22;11062;51.164;16.924;2023-07-13T01:53:50;36.00;46.00
21801;DHT22;11062;51.164;16.924;2023-07-13T01:56:16;37.10;47.00
21801;DHT22;11062;51.164;16.924;2023-07-13T01:58:42;37.10;47.20
21801;DHT22;11062;51.164;16.924;2023-07-13T02:01:09;37.00;47.30
21801;DHT22;11062;51.164;16.924;2023-07-13T02:03:37;36.90;47.30
21801;DHT22;11062;51.164;16.924;2023-07-13T02:06:03;36.90;47.20
21801;DHT22;11062;51.164;16.924;2023-07-13T02:08:33;36.90;47.00
21801;DHT22;11062;51.164;16.924;2023-07-13T02:11:03;37.00;46.70
21801;DHT22;11062;51.164;16.924;2023-07-13T02:13:29;37.00;46.70
21801;DHT22;11062;51.164;16.924;2023-07-13T02:15:58;36.70;46.50
21801;DHT22;11062;51.164;16.924;2023-07-13T02:18:24;37.10;47.50
21801;DHT22;11062;51.164;16.924;2023-07-13T02:20:50;37.10;46.60
21801;DHT22;11062;51.164;16.924;2023-07-13T02:34:54;36.90;47.00
21801;DHT22;11062;51.164;16.924;2023-07-13T02:40:48;36.80;47.30
21801;DHT22;11062;51.164;16.924;2023-07-13T02:46:21;36.80;47.00
21801;DHT22;11062;51.164;16.924;2023-07-13T02:54:49;36.80;47.10
21801;DHT22;11062;51.164;16.924;2023-07-13T02:57:19;36.70;47.50
21801;DHT22;11062;51.164;16.924;2023-07-13T02:59:45;36.70;47.60
21801;DHT22;11062;51.164;16.924;2023-07-13T03:02:11;36.60;47.50
21801;DHT22;11062;51.164;16.924;2023-07-13T03:04:37;36.60;47.50
21801;DHT22;11062;51.164;16.924;2023-07-13T03:07:05;36.10;47.80
21801;DHT22;11062;51.164;16.924;2023-07-13T03:09:33;36.50;48.30
21801;DHT22;11062;51.164;16.924;2023-07-13T03:11:59;35.20;47.10
21801;DHT22;11062;51.164;16.924;2023-07-13T03:14:26;36.40;47.70
21801;DHT22;11062;51.164;16.924;2023-07-13T03:16:52;35.70;47.50
21801;DHT22;11062;51.164;16.924;2023-07-13T03:19:18;36.90;48.70
21801;DHT22;11062;51.164;16.924;2023-07-13T03:21:45;36.40;47.90
21801;DHT22;11062;51.164;16.924;2023-07-13T03:24:11;36.10;48.00
21801;DHT22;11062;51.164;16.924;2023-07-13T03:31:48;36.60;48.30
21801;DHT22;11062;51.164;16.924;2023-07-13T03:34:14;36.50;48.10
21801;DHT22;11062;51.164;16.924;2023-07-13T03:36:39;36.50;48.00
21801;DHT22;11062;51.164;16.924;2023-07-13T03:39:05;36.60;47.90
21801;DHT22;11062;51.164;16.924;2023-07-13T03:41:33;36.70;48.00
21801;DHT22;11062;51.164;16.924;2023-07-13T03:43:59;36.60;48.00
21801;DHT22;11062;51.164;16.924;2023-07-13T03:46:25;36.70;48.40
21801;DHT22;11062;51.164;16.924;2023-07-13T03:48:51;36.70;48.20
21801;DHT22;11062;51.164;16.924;2023-07-13T03:51:17;36.60;48.30
21801;DHT22;11062;51.164;16.924;2023-07-13T03:53:45;36.70;48.30
21801;DHT22;11062;51.164;16.924;2023-07-13T03:56:11;36.70;48.10
21801;DHT22;11062;51.164;16.924;2023-07-13T03:58:39;36.60;47.90
21801;DHT22;11062;51.164;16.924;2023-07-13T04:01:07;36.80;48.00
21801;DHT22;11062;51.164;16.924;2023-07-13T04:03:35;36.80;48.00
21801;DHT22;11062;51.164;16.924;2023-07-13T04:06:03;37.00;48.20
21801;DHT22;11062;51.164;16.924;2023-07-13T04:08:31;36.80;48.00
21801;DHT22;11062;51.164;16.924;2023-07-13T04:10:58;36.70;47.90
21801;DHT22;11062;51.164;16.924;2023-07-13T04:13:24;36.50;48.00
21801;DHT22;11062;51.164;16.924;2023-07-13T04:15:50;36.80;47.90
21801;DHT22;11062;51.164;16.924;2023-07-13T04:18:16;36.80;47.40
21801;DHT22;11062;51.164;16.924;2023-07-13T04:20:42;36.20;46.20
21801;DHT22;11062;51.164;16.924;2023-07-13T04:23:08;35.70;46.00
21801;DHT22;11062;51.164;16.924;2023-07-13T04:25:34;34.90;46.70
21801;DHT22;11062;51.164;16.924;2023-07-13T04:28:00;34.60;47.10
21801;DHT22;11062;51.164;16.924;2023-07-13T04:30:26;35.00;47.80
21801;DHT22;11062;51.164;16.924;2023-07-13T04:32:52;33.50;48.80
21801;DHT22;11062;51.164;16.924;2023-07-13T04:35:21;33.60;50.00
21801;DHT22;11062;51.164;16.924;2023-07-13T04:37:51;34.00;49.90
21801;DHT22;11062;51.164;16.924;2023-07-13T04:40:17;33.20;50.30
21801;DHT22;11062;51.164;16.924;2023-07-13T04:42:45;32.70;50.00
21801;DHT22;11062;51.164;16.924;2023-07-13T04:45:11;32.70;50.10
21801;DHT22;11062;51.164;16.924;2023-07-13T04:47:38;33.20;51.70
21801;DHT22;11062;51.164;16.924;2023-07-13T04:50:04;32.40;51.70
21801;DHT22;11062;51.164;16.924;2023-07-13T04:52:30;32.20;51.50
21801;DHT22;11062;51.164;16.924;2023-07-13T04:54:58;32.00;52.10
21801;DHT22;11062;51.164;16.924;2023-07-13T04:57:24;32.10;52.90
21801;DHT22;11062;51.164;16.924;2023-07-13T04:59:50;31.90;53.00
21801;DHT22;11062;51.164;16.924;2023-07-13T05:02:15;31.80;53.10
21801;DHT22;11062;51.164;16.924;2023-07-13T05:04:41;32.10;53.80
21801;DHT22;11062;51.164;16.924;2023-07-13T05:07:07;32.10;52.90
21801;DHT22;11062;51.164;16.924;2023-07-13T05:09:33;32.20;53.10
21801;DHT22;11062;51.164;16.924;2023-07-13T05:11:59;32.20;53.30
21801;DHT22;11062;51.164;16.924;2023-07-13T05:14:24;32.20;53.10
21801;DHT22;11062;51.164;16.924;2023-07-13T05:16:53;32.40;54.20
21801;DHT22;11062;51.164;16.924;2023-07-13T05:19:21;32.70;53.00
21801;DHT22;11062;51.164;16.924;2023-07-13T05:21:47;33.10;53.10
21801;DHT22;11062;51.164;16.924;2023-07-13T05:24:13;32.90;52.80
21801;DHT22;11062;51.164;16.924;2023-07-13T05:26:39;33.10;52.70
21801;DHT22;11062;51.164;16.924;2023-07-13T05:29:05;33.10;52.50
21801;DHT22;11062;51.164;16.924;2023-07-13T05:31:31;33.20;53.40
21801;DHT22;11062;51.164;16.924;2023-07-13T05:33:57;33.40;52.50
21801;DHT22;11062;51.164;16.924;2023-07-13T05:36:22;32.70;52.90
21801;DHT22;11062;51.164;16.924;2023-07-13T05:38:48;33.60;52.50
21801;DHT22;11062;51.164;16.924;2023-07-13T05:41:14;33.70;51.40
21801;DHT22;11062;51.164;16.924;2023-07-13T05:43:39;33.80;51.70
21801;DHT22;11062;51.164;16.924;2023-07-13T05:46:05;33.90;51.30
21801;DHT22;11062;51.164;16.924;2023-07-13T05:48:31;34.00;51.00
21801;DHT22;11062;51.164;16.924;2023-07-13T05:50:57;34.20;51.50
21801;DHT22;11062;51.164;16.924;2023-07-13T05:53:23;34.30;51.60
21801;DHT22;11062;51.164;16.924;2023-07-13T05:55:48;34.40;51.00
21801;DHT22;11062;51.164;16.924;2023-07-13T05:58:18;34.50;50.70
21801;DHT22;11062;51.164;16.924;2023-07-13T06:00:46;34.50;51.10
21801;DHT22;11062;51.164;16.924;2023-07-13T06:03:15;34.40;50.00
21801;DHT22;11062;51.164;16.924;2023-07-13T06:05:50;34.40;50.90
21801;DHT22;11062;51.164;16.924;2023-07-13T06:08:16;33.90;51.30
21801;DHT22;11062;51.164;16.924;2023-07-13T06:10:42;34.40;51.80
21801;DHT22;11062;51.164;16.924;2023-07-13T06:13:07;34.40;51.00
21801;DHT22;11062;51.164;16.924;2023-07-13T06:15:33;34.40;51.00
21801;DHT22;11062;51.164;16.924;2023-07-13T06:17:59;34.50;50.20
21801;DHT22;11062;51.164;16.924;2023-07-13T06:20:25;34.50;50.90
21801;DHT22;11062;51.164;16.924;2023-07-13T06:22:50;34.70;51.20
21801;DHT22;11062;51.164;16.924;2023-07-13T06:25:17;34.80;51.10
21801;DHT22;11062;51.164;16.924;2023-07-13T06:27:43;34.10;50.50
21801;DHT22;11062;51.164;16.924;2023-07-13T06:30:09;34.60;50.80
21801;DHT22;11062;51.164;16.924;2023-07-13T06:32:35;34.70;50.80
21801;DHT22;11062;51.164;16.924;2023-07-13T06:35:01;34.30;51.80
21801;DHT22;11062;51.164;16.924;2023-07-13T06:37:27;33.90;51.20
21801;DHT22;11062;51.164;16.924;2023-07-13T06:39:53;33.80;51.80
21801;DHT22;11062;51.164;16.924;2023-07-13T06:42:18;33.90;51.60
21801;DHT22;11062;51.164;16.924;2023-07-13T06:44:44;34.00;51.70
21801;DHT22;11062;51.164;16.924;2023-07-13T06:47:10;34.00;51.30
21801;DHT22;11062;51.164;16.924;2023-07-13T06:49:36;34.00;51.40
21801;DHT22;11062;51.164;16.924;2023-07-13T06:52:01;34.20;51.50
21801;DHT22;11062;51.164;16.924;2023-07-13T06:54:27;34.20;51.40
21801;DHT22;11062;51.164;16.924;2023-07-13T06:56:53;34.10;52.10
21801;DHT22;11062;51.164;16.924;2023-07-13T06:59:19;34.20;52.40
21801;DHT22;11062;51.164;16.924;2023-07-13T07:01:45;34.20;52.00
21801;DHT22;11062;51.164;16.924;2023-07-13T07:04:11;34.20;52.20
21801;DHT22;11062;51.164;16.924;2023-07-13T07:06:36;34.10;51.50
21801;DHT22;11062;51.164;16.924;2023-07-13T07:09:02;33.00;51.70
21801;DHT22;11062;51.164;16.924;2023-07-13T07:11:29;34.20;52.10
21801;DHT22;11062;51.164;16.924;2023-07-13T07:13:55;33.20;51.20
21801;DHT22;11062;51.164;16.924;2023-07-13T07:16:24;34.20;52.00
21801;DHT22;11062;51.164;16.924;2023-07-13T07:18:50;33.90;51.60
21801;DHT22;11062;51.164;16.924;2023-07-13T07:21:15;33.90;51.50
21801;DHT22;11062;51.164;16.924;2023-07-13T07:23:42;34.10;52.20
21801;DHT22;11062;51.164;16.924;2023-07-13T07:26:08;34.20;51.30
21801;DHT22;11062;51.164;16.924;2023-07-13T07:28:35;34.30;51.80
21801;DHT22;11062;51.164;16.924;2023-07-13T07:31:01;33.10;51.30
21801;DHT22;11062;51.164;16.924;2023-07-13T07:33:27;34.50;52.00
21801;DHT22;11062;51.164;16.924;2023-07-13T07:35:53;34.70;52.10
21801;DHT22;11062;51.164;16.924;2023-07-13T07:38:19;34.80;51.90
21801;DHT22;11062;51.164;16.924;2023-07-13T07:40:44;34.90;52.10
21801;DHT22;11062;51.164;16.924;2023-07-13T07:43:11;34.00;51.50
21801;DHT22;11062;51.164;16.924;2023-07-13T07:45:39;34.90;51.70
21801;DHT22;11062;51.164;16.924;2023-07-13T07:48:05;35.10;51.60
21801;DHT22;11062;51.164;16.924;2023-07-13T07:50:32;33.60;50.90
21801;DHT22;11062;51.164;16.924;2023-07-13T07:52:58;35.20;51.80
21801;DHT22;11062;51.164;16.924;2023-07-13T07:55:24;35.20;51.50
21801;DHT22;11062;51.164;16.924;2023-07-13T07:57:52;35.20;51.00
21801;DHT22;11062;51.164;16.924;2023-07-13T08:00:18;35.40;51.10
21801;DHT22;11062;51.164;16.924;2023-07-13T08:02:45;35.40;51.10
21801;DHT22;11062;51.164;16.924;2023-07-13T08:05:11;35.50;50.80
21801;DHT22;11062;51.164;16.924;2023-07-13T08:07:38;35.30;51.00
21801;DHT22;11062;51.164;16.924;2023-07-13T08:10:08;35.50;50.30
21801;DHT22;11062;51.164;16.924;2023-07-13T08:12:38;35.50;51.20
21801;DHT22;11062;51.164;16.924;2023-07-13T08:15:04;35.50;50.20
21801;DHT22;11062;51.164;16.924;2023-07-13T08:17:31;35.50;50.90
21801;DHT22;11062;51.164;16.924;2023-07-13T08:19:56;35.70;51.30
21801;DHT22;11062;51.164;16.924;2023-07-13T08:22:22;35.70;50.60
21801;DHT22;11062;51.164;16.924;2023-07-13T08:24:48;35.30;49.90
21801;DHT22;11062;51.164;16.924;2023-07-13T08:27:24;35.50;50.20
21801;DHT22;11062;51.164;16.924;2023-07-13T08:30:03;35.60;50.10
21801;DHT22;11062;51.164;16.924;2023-07-13T08:32:31;35.70;50.50
21801;DHT22;11062;51.164;16.924;2023-07-13T08:34:57;34.40;49.60
21801;DHT22;11062;51.164;16.924;2023-07-13T08:37:29;35.50;50.30
21801;DHT22;11062;51.164;16.924;2023-07-13T08:40:12;34.70;49.90
21801;DHT22;11062;51.164;16.924;2023-07-13T08:43:17;33.70;48.60
21801;DHT22;11062;51.164;16.924;2023-07-13T08:46:15;35.30;50.00
21801;DHT22;11062;51.164;16.924;2023-07-13T08:49:03;35.40;50.70
21801;DHT22;11062;51.164;16.924;2023-07-13T08:58:01;35.90;49.20
21801;DHT22;11062;51.164;16.924;2023-07-13T09:00:52;35.90;49.40
21801;DHT22;11062;51.164;16.924;2023-07-13T09:15:02;36.50;48.40
21801;DHT22;11062;51.164;16.924;2023-07-13T09:17:41;36.40;49.00
21801;DHT22;11062;51.164;16.924;2023-07-13T09:22:55;35.90;49.30
21801;DHT22;11062;51.164;16.924;2023-07-13T09:25:35;35.70;50.60
21801;DHT22;11062;51.164;16.924;2023-07-13T09:28:20;36.00;49.30
21801;DHT22;11062;51.164;16.924;2023-07-13T09:33:18;36.30;48.90
21801;DHT22;11062;51.164;16.924;2023-07-13T09:35:44;36.30;48.80
21801;DHT22;11062;51.164;16.924;2023-07-13T09:38:18;36.40;48.10
21801;DHT22;11062;51.164;16.924;2023-07-13T09:43:29;36.70;47.70
21801;DHT22;11062;51.164;16.924;2023-07-13T09:45:59;35.90;46.20
21801;DHT22;11062;51.164;16.924;2023-07-13T09:48:40;36.30;46.90
21801;DHT22;11062;51.164;16.924;2023-07-13T09:51:15;37.40;46.10
21801;DHT22;11062;51.164;16.924;2023-07-13T09:54:01;36.40;45.60
21801;DHT22;11062;51.164;16.924;2023-07-13T09:56:32;37.20;45.50
21801;DHT22;11062;51.164;16.924;2023-07-13T09:59:03;37.20;46.20
21801;DHT22;11062;51.164;16.924;2023-07-13T10:06:46;37.40;45.80
21801;DHT22;11062;51.164;16.924;2023-07-13T10:09:21;37.40;45.00
21801;DHT22;11062;51.164;16.924;2023-07-13T10:11:52;37.60;45.70
21801;DHT22;11062;51.164;16.924;2023-07-13T10:14:27;37.40;44.40
21801;DHT22;11062;51.164;16.924;2023-07-13T10:23:02;37.70;45.30
21801;DHT22;11062;51.164;16.924;2023-07-13T10:25:32;37.40;45.60
21801;DHT22;11062;51.164;16.924;2023-07-13T10:38:37;37.60;45.40
21801;DHT22;11062;51.164;16.924;2023-07-13T10:41:07;37.60;45.20
21801;DHT22;11062;51.164;16.924;2023-07-13T10:43:41;38.00;45.00
21801;DHT22;11062;51.164;16.924;2023-07-13T10:46:14;38.10;45.50
21801;DHT22;11062;51.164;16.924;2023-07-13T10:48:46;38.40;45.00
21801;DHT22;11062;51.164;16.924;2023-07-13T10:51:17;38.30;44.90
21801;DHT22;11062;51.164;16.924;2023-07-13T10:53:43;38.00;44.90
21801;DHT22;11062;51.164;16.924;2023-07-13T10:58:43;39.30;43.00
21801;DHT22;11062;51.164;16.924;2023-07-13T11:01:17;38.60;41.60
21801;DHT22;11062;51.164;16.924;2023-07-13T11:06:28;38.60;41.70
21801;DHT22;11062;51.164;16.924;2023-07-13T11:09:30;39.20;41.30
21801;DHT22;11062;51.164;16.924;2023-07-13T11:17:49;39.40;41.50
21801;DHT22;11062;51.164;16.924;2023-07-13T11:22:51;39.40;41.60
21801;DHT22;11062;51.164;16.924;2023-07-13T11:25:31;39.70;41.80
21801;DHT22;11062;51.164;16.924;2023-07-13T11:30:49;39.70;41.20
21801;DHT22;11062;51.164;16.924;2023-07-13T11:33:22;39.90;41.20
21801;DHT22;11062;51.164;16.924;2023-07-13T11:38:36;38.50;39.20
21801;DHT22;11062;51.164;16.924;2023-07-13T11:43:35;39.70;39.40
21801;DHT22;11062;51.164;16.924;2023-07-13T11:46:36;39.90;38.30
21801;DHT22;11062;51.164;16.924;2023-07-13T11:49:05;40.00;36.60
21801;DHT22;11062;51.164;16.924;2023-07-13T11:51:34;39.70;37.20
21801;DHT22;11062;51.164;16.924;2023-07-13T11:56:50;38.80;37.40
21801;DHT22;11062;51.164;16.924;2023-07-13T11:59:20;39.70;38.10
21801;DHT22;11062;51.164;16.924;2023-07-13T12:01:54;39.30;38.60
21801;DHT22;11062;51.164;16.924;2023-07-13T12:04:31;39.80;39.50
21801;DHT22;11062;51.164;16.924;2023-07-13T12:07:17;39.00;38.90
21801;DHT22;11062;51.164;16.924;2023-07-13T12:09:44;39.20;39.00
21801;DHT22;11062;51.164;16.924;2023-07-13T12:12:17;39.80;40.20
21801;DHT22;11062;51.164;16.924;2023-07-13T12:14:43;39.80;40.70
21801;DHT22;11062;51.164;16.924;2023-07-13T12:17:20;41.80;41.40
21801;DHT22;11062;51.164;16.924;2023-07-13T12:19:47;39.90;40.30
21801;DHT22;11062;51.164;16.924;2023-07-13T12:22:14;39.80;40.00
21801;DHT22;11062;51.164;16.924;2023-07-13T12:24:42;39.70;38.50
21801;DHT22;11062;51.164;16.924;2023-07-13T12:29:58;40.10;38.70
21801;DHT22;11062;51.164;16.924;2023-07-13T12:32:25;40.40;37.50
21801;DHT22;11062;51.164;16.924;2023-07-13T12:34:54;40.90;37.60
21801;DHT22;11062;51.164;16.924;2023-07-13T12:37:26;40.90;37.30
21801;DHT22;11062;51.164;16.924;2023-07-13T12:39:53;41.00;37.00
21801;DHT22;11062;51.164;16.924;2023-07-13T12:42:28;41.50;37.60
21801;DHT22;11062;51.164;16.924;2023-07-13T12:45:20;42.00;34.80
21801;DHT22;11062;51.164;16.924;2023-07-13T12:48:02;42.30;33.80
21801;DHT22;11062;51.164;16.924;2023-07-13T12:50:43;42.30;33.30
21801;DHT22;11062;51.164;16.924;2023-07-13T12:53:20;42.10;33.60
21801;DHT22;11062;51.164;16.924;2023-07-13T12:55:58;42.90;33.80
21801;DHT22;11062;51.164;16.924;2023-07-13T12:58:38;42.60;32.80
21801;DHT22;11062;51.164;16.924;2023-07-13T13:01:38;43.40;32.40
21801;DHT22;11062;51.164;16.924;2023-07-13T13:04:08;43.90;33.10
21801;DHT22;11062;51.164;16.924;2023-07-13T13:18:30;45.40;32.10
21801;DHT22;11062;51.164;16.924;2023-07-13T13:21:03;45.80;31.30
21801;DHT22;11062;51.164;16.924;2023-07-13T13:26:56;46.10;31.20
21801;DHT22;11062;51.164;16.924;2023-07-13T13:34:45;46.50;30.70
21801;DHT22;11062;51.164;16.924;2023-07-13T14:27:40;48.90;26.10
21801;DHT22;11062;51.164;16.924;2023-07-13T14:30:14;48.70;26.50
21801;DHT22;11062;51.164;16.924;2023-07-13T14:32:52;48.50;26.70
21801;DHT22;11062;51.164;16.924;2023-07-13T14:35:21;48.10;27.80
21801;DHT22;11062;51.164;16.924;2023-07-13T14:37:50;47.70;27.30
21801;DHT22;11062;51.164;16.924;2023-07-13T14:40:27;47.30;27.60
21801;DHT22;11062;51.164;16.924;2023-07-13T14:42:57;46.80;27.30
21801;DHT22;11062;51.164;16.924;2023-07-13T14:45:38;46.60;27.80
21801;DHT22;11062;51.164;16.924;2023-07-13T14:48:16;46.20;28.00
21801;DHT22;11062;51.164;16.924;2023-07-13T14:50:45;45.90;28.90
21801;DHT22;11062;51.164;16.924;2023-07-13T14:53:31;45.40;28.50
21801;DHT22;11062;51.164;16.924;2023-07-13T14:55:57;45.30;29.20
21801;DHT22;11062;51.164;16.924;2023-07-13T14:58:28;45.50;28.80
21801;DHT22;11062;51.164;16.924;2023-07-13T15:00:54;44.70;29.10
21801;DHT22;11062;51.164;16.924;2023-07-13T15:03:25;44.40;30.00
21801;DHT22;11062;51.164;16.924;2023-07-13T15:05:54;44.00;29.90
21801;DHT22;11062;51.164;16.924;2023-07-13T15:08:23;43.60;31.40
21801;DHT22;11062;51.164;16.924;2023-07-13T15:10:50;42.80;30.60
21801;DHT22;11062;51.164;16.924;2023-07-13T15:13:21;42.90;31.40
21801;DHT22;11062;51.164;16.924;2023-07-13T15:15:56;42.90;32.10
21801;DHT22;11062;51.164;16.924;2023-07-13T15:18:27;42.80;32.20
21801;DHT22;11062;51.164;16.924;2023-07-13T15:20:55;42.80;32.20
21801;DHT22;11062;51.164;16.924;2023-07-13T15:23:28;42.70;32.00
21801;DHT22;11062;51.164;16.924;2023-07-13T15:25:57;42.60;32.70
21801;DHT22;11062;51.164;16.924;2023-07-13T15:28:24;43.50;33.00
21801;DHT22;11062;51.164;16.924;2023-07-13T15:30:51;44.10;31.60
21801;DHT22;11062;51.164;16.924;2023-07-13T15:33:23;44.30;30.80
21801;DHT22;11062;51.164;16.924;2023-07-13T15:35:50;44.20;30.40
21801;DHT22;11062;51.164;16.924;2023-07-13T15:38:21;44.50;30.10
21801;DHT22;11062;51.164;16.924;2023-07-13T15:40:48;44.70;30.80
21801;DHT22;11062;51.164;16.924;2023-07-13T15:46:09;45.40;30.50
21801;DHT22;11062;51.164;16.924;2023-07-13T15:48:36;45.80;30.90
21801;DHT22;11062;51.164;16.924;2023-07-13T15:51:08;46.30;30.70
21801;DHT22;11062;51.164;16.924;2023-07-13T15:53:38;46.30;31.00
21801;DHT22;11062;51.164;16.924;2023-07-13T15:56:33;46.70;30.30
21801;DHT22;11062;51.164;16.924;2023-07-13T15:59:03;46.70;30.50
21801;DHT22;11062;51.164;16.924;2023-07-13T16:01:30;47.20;30.30
21801;DHT22;11062;51.164;16.924;2023-07-13T16:03:58;47.60;29.60
21801;DHT22;11062;51.164;16.924;2023-07-13T16:06:36;47.60;30.00
21801;DHT22;11062;51.164;16.924;2023-07-13T16:09:22;47.90;29.60
21801;DHT22;11062;51.164;16.924;2023-07-13T16:11:52;48.30;29.60
21801;DHT22;11062;51.164;16.924;2023-07-13T16:14:18;48.30;29.90
21801;DHT22;11062;51.164;16.924;2023-07-13T16:16:46;48.60;29.80
21801;DHT22;11062;51.164;16.924;2023-07-13T16:19:11;48.20;29.60
21801;DHT22;11062;51.164;16.924;2023-07-13T16:21:46;48.20;29.70
21801;DHT22;11062;51.164;16.924;2023-07-13T16:24:23;47.90;30.00
21801;DHT22;11062;51.164;16.924;2023-07-13T16:26:50;47.70;29.90
21801;DHT22;11062;51.164;16.924;2023-07-13T16:32:03;47.60;30.10
21801;DHT22;11062;51.164;16.924;2023-07-13T16:34:37;47.50;31.20
21801;DHT22;11062;51.164;16.924;2023-07-13T16:37:14;47.40;30.60
21801;DHT22;11062;51.164;16.924;2023-07-13T16:39:44;47.30;31.00
21801;DHT22;11062;51.164;16.924;2023-07-13T16:42:10;47.30;31.20
21801;DHT22;11062;51.164;16.924;2023-07-13T16:44:37;47.20;30.60
21801;DHT22;11062;51.164;16.924;2023-07-13T16:47:08;47.10;30.00
21801;DHT22;11062;51.164;16.924;2023-07-13T16:49:37;46.90;31.10
21801;DHT22;11062;51.164;16.924;2023-07-13T16:52:03;46.80;31.30
21801;DHT22;11062;51.164;16.924;2023-07-13T16:54:32;46.50;31.00
21801;DHT22;11062;51.164;16.924;2023-07-13T16:56:59;46.20;31.60
21801;DHT22;11062;51.164;16.924;2023-07-13T16:59:34;46.70;32.00
21801;DHT22;11062;51.164;16.924;2023-07-13T17:02:02;46.20;32.10
21801;DHT22;11062;51.164;16.924;2023-07-13T17:04:31;46.00;32.30
21801;DHT22;11062;51.164;16.924;2023-07-13T17:07:00;45.80;32.30
21801;DHT22;11062;51.164;16.924;2023-07-13T17:09:26;45.10;32.10
21801;DHT22;11062;51.164;16.924;2023-07-13T17:11:52;45.60;32.70
21801;DHT22;11062;51.164;16.924;2023-07-13T17:14:27;45.00;32.90
21801;DHT22;11062;51.164;16.924;2023-07-13T17:16:59;45.40;33.30
21801;DHT22;11062;51.164;16.924;2023-07-13T17:19:30;45.50;33.30
21801;DHT22;11062;51.164;16.924;2023-07-13T17:22:02;45.10;33.50
21801;DHT22;11062;51.164;16.924;2023-07-13T17:24:33;45.20;33.40
21801;DHT22;11062;51.164;16.924;2023-07-13T17:29:50;45.40;33.50
21801;DHT22;11062;51.164;16.924;2023-07-13T17:32:18;45.30;33.00
21801;DHT22;11062;51.164;16.924;2023-07-13T17:34:45;45.30;33.20
21801;DHT22;11062;51.164;16.924;2023-07-13T17:37:16;46.10;33.90
21801;DHT22;11062;51.164;16.924;2023-07-13T17:39:43;45.30;33.10
21801;DHT22;11062;51.164;16.924;2023-07-13T17:42:13;45.20;33.10
21801;DHT22;11062;51.164;16.924;2023-07-13T17:44:39;45.20;33.40
21801;DHT22;11062;51.164;16.924;2023-07-13T17:47:10;44.60;33.40
21801;DHT22;11062;51.164;16.924;2023-07-13T17:49:42;44.90;33.80
21801;DHT22;11062;51.164;16.924;2023-07-13T17:52:16;44.80;33.60
21801;DHT22;11062;51.164;16.924;2023-07-13T17:54:44;44.70;34.60
21801;DHT22;11062;51.164;16.924;2023-07-13T17:57:10;44.40;34.40
21801;DHT22;11062;51.164;16.924;2023-07-13T17:59:36;44.30;34.90
21801;DHT22;11062;51.164;16.924;2023-07-13T18:02:02;44.10;35.50
21801;DHT22;11062;51.164;16.924;2023-07-13T18:04:33;44.10;35.40
21801;DHT22;11062;51.164;16.924;2023-07-13T18:07:09;43.90;35.40
21801;DHT22;11062;51.164;16.924;2023-07-13T18:10:00;43.70;36.20
21801;DHT22;11062;51.164;16.924;2023-07-13T18:12:39;43.30;36.30
21801;DHT22;11062;51.164;16.924;2023-07-13T18:15:12;43.40;36.80
21801;DHT22;11062;51.164;16.924;2023-07-13T18:17:39;43.30;37.10
21801;DHT22;11062;51.164;16.924;2023-07-13T18:20:09;42.00;36.20
21801;DHT22;11062;51.164;16.924;2023-07-13T18:22:42;42.90;37.20
21801;DHT22;11062;51.164;16.924;2023-07-13T18:25:16;42.80;37.30
21801;DHT22;11062;51.164;16.924;2023-07-13T18:27:43;42.50;37.50
21801;DHT22;11062;51.164;16.924;2023-07-13T18:32:54;42.40;38.80
21801;DHT22;11062;51.164;16.924;2023-07-13T18:35:33;42.40;39.20
21801;DHT22;11062;51.164;16.924;2023-07-13T18:38:00;42.20;37.70
21801;DHT22;11062;51.164;16.924;2023-07-13T18:40:38;42.40;37.40
21801;DHT22;11062;51.164;16.924;2023-07-13T18:43:04;40.80;39.30
21801;DHT22;11062;51.164;16.924;2023-07-13T18:45:30;40.30;39.70
21801;DHT22;11062;51.164;16.924;2023-07-13T18:48:04;39.90;42.10
21801;DHT22;11062;51.164;16.924;2023-07-13T18:50:35;39.30;41.80
21801;DHT22;11062;51.164;16.924;2023-07-13T18:53:15;38.90;42.60
21801;DHT22;11062;51.164;16.924;2023-07-13T18:55:44;37.70;41.90
21801;DHT22;11062;51.164;16.924;2023-07-13T18:58:12;38.20;45.00
21801;DHT22;11062;51.164;16.924;2023-07-13T19:00:47;37.60;44.80
21801;DHT22;11062;51.164;16.924;2023-07-13T19:03:34;37.30;44.90